Time;durP1;ratioP1;P1;durP2;ratioP2;P2;SDS_P1;SDS_P2;PMS_P1;PMS_P2;Temp;Humidity;BMP_temperature;BMP_pressure;BME280_temperature;BME280_humidity;BME280_pressure;Samples;Min_cycle;Max_cycle;Signal;HPM_P1;HPM_P2
2020/12/22 00:00:27;;;;;;;20.90;13.03;;;;;;;-1.62;73.15;102265.64;1790385;80;21143;-77
2020/12/22 00:02:55;;;;;;;25.12;14.70;;;;;;;-1.64;73.04;102272.83;1791894;79;21199;-77
2020/12/22 00:05:22;;;;;;;19.42;12.03;;;;;;;-1.68;73.08;102272.27;1774269;79;21104;-76
2020/12/22 00:07:50;;;;;;;23.42;14.23;;;;;;;-1.72;73.10;102272.64;1774199;78;21787;-75
2020/12/22 00:10:18;;;;;;;22.58;13.53;;;;;;;-1.82;73.19;102279.66;1780016;79;21160;-75
2020/12/22 00:12:45;;;;;;;21.57;13.48;;;;;;;-1.86;73.37;102276.47;1785478;79;21164;-76
2020/12/22 00:15:13;;;;;;;19.75;11.95;;;;;;;-1.86;73.45;102272.55;1776474;79;21171;-76
2020/12/22 00:17:44;;;;;;;22.22;14.28;;;;;;;-1.84;73.44;102275.88;1782435;78;21112;-76
2020/12/22 00:20:12;;;;;;;22.07;14.33;;;;;;;-1.87;73.55;102279.24;1788818;78;22264;-77
2020/12/22 00:22:40;;;;;;;29.25;16.48;;;;;;;-1.86;73.69;102276.47;1787349;79;21194;-76
2020/12/22 00:25:08;;;;;;;28.60;15.88;;;;;;;-1.76;73.73;102273.88;1791295;78;21124;-77
2020/12/22 00:27:38;;;;;;;28.83;17.67;;;;;;;-1.68;73.70;102277.50;1781970;79;21168;-77
2020/12/22 00:30:07;;;;;;;37.08;18.90;;;;;;;-1.59;73.60;102275.02;1791990;79;21171;-77
2020/12/22 00:32:35;;;;;;;39.13;19.15;;;;;;;-1.55;73.49;102273.78;1779721;78;21198;-77
2020/12/22 00:35:04;;;;;;;41.15;20.32;;;;;;;-1.53;73.14;102269.25;1792553;80;21191;-75
2020/12/22 00:37:32;;;;;;;47.78;19.27;;;;;;;-1.52;73.08;102277.45;1779949;80;21113;-76
2020/12/22 00:39:59;;;;;;;55.20;22.67;;;;;;;-1.50;73.02;102265.88;1766422;80;21083;-76
2020/12/22 00:42:33;;;;;;;44.48;20.72;;;;;;;-1.45;72.95;102266.31;1792751;80;21140;-77
2020/12/22 00:45:00;;;;;;;46.20;20.90;;;;;;;-1.39;72.82;102270.16;1791980;79;21195;-77
2020/12/22 00:47:28;;;;;;;42.65;21.40;;;;;;;-1.33;72.81;102262.24;1789548;79;21179;-76
2020/12/22 00:49:56;;;;;;;42.75;21.73;;;;;;;-1.31;72.65;102263.77;1782974;79;21563;-75
2020/12/22 00:52:23;;;;;;;42.50;19.60;;;;;;;-1.30;72.56;102266.72;1790728;80;21187;-77
2020/12/22 00:54:51;;;;;;;38.15;19.35;;;;;;;-1.27;72.56;102266.94;1765439;79;21563;-77
2020/12/22 00:57:20;;;;;;;26.82;15.08;;;;;;;-1.27;72.43;102261.20;1792660;79;22739;-77
2020/12/22 01:00:06;;;;;;;26.77;15.50;;;;;;;-1.26;72.42;102264.66;1791506;79;21210;-76
2020/12/22 01:02:34;;;;;;;24.32;13.90;;;;;;;-1.27;72.35;102267.77;1780030;79;21619;-77
2020/12/22 01:05:02;;;;;;;23.25;13.83;;;;;;;-1.33;72.05;102265.69;1792258;80;21144;-77
2020/12/22 01:07:30;;;;;;;20.02;12.33;;;;;;;-1.41;72.06;102261.63;1792518;80;21116;-76
2020/12/22 01:09:57;;;;;;;19.32;11.93;;;;;;;-1.44;72.13;102254.03;1780134;78;21371;-76
2020/12/22 01:12:25;;;;;;;17.75;11.45;;;;;;;-1.42;72.18;102254.22;1787152;78;21591;-76
2020/12/22 01:14:54;;;;;;;15.38;9.18;;;;;;;-1.37;72.24;102257.76;1792252;80;21179;-76
2020/12/22 01:17:22;;;;;;;11.43;7.85;;;;;;;-1.34;72.24;102254.86;1789539;78;21750;-76
2020/12/22 01:19:49;;;;;;;12.88;8.45;;;;;;;-1.43;72.27;102253.06;1773347;79;21116;-76
2020/12/22 01:22:17;;;;;;;14.55;9.85;;;;;;;-1.54;72.38;102249.26;1784827;79;21369;-76
2020/12/22 01:24:45;;;;;;;15.20;8.90;;;;;;;-1.68;72.60;102252.62;1793590;79;21140;-76
2020/12/22 01:27:12;;;;;;;13.38;8.40;;;;;;;-1.69;72.78;102254.87;1789912;80;21187;-77
2020/12/22 01:29:40;;;;;;;12.15;8.68;;;;;;;-1.64;72.86;102253.66;1786450;80;21155;-76
2020/12/22 01:32:07;;;;;;;10.65;7.35;;;;;;;-1.66;72.86;102251.98;1782771;79;21125;-75
2020/12/22 01:34:35;;;;;;;12.18;8.03;;;;;;;-1.72;72.99;102245.97;1746934;82;21383;-77
2020/12/22 01:37:06;;;;;;;14.55;9.15;;;;;;;-1.78;73.13;102250.91;1796523;78;21145;-74
2020/12/22 01:39:34;;;;;;;14.03;9.05;;;;;;;-1.80;73.18;102248.44;1728590;79;21626;-77
2020/12/22 01:42:11;;;;;;;25.45;14.83;;;;;;;-1.77;73.32;102246.05;1756547;80;21168;-77
2020/12/22 01:44:39;;;;;;;31.00;15.50;;;;;;;-1.77;73.31;102246.05;1758775;81;21037;-76
2020/12/22 01:47:08;;;;;;;28.85;15.15;;;;;;;-1.82;73.41;102249.05;1745175;80;21197;-77
2020/12/22 01:49:36;;;;;;;35.58;18.27;;;;;;;-1.81;73.41;102242.87;1765107;79;21116;-76
2020/12/22 01:52:04;;;;;;;35.48;19.12;;;;;;;-1.78;73.39;102243.87;1750702;80;21215;-76
2020/12/22 01:54:31;;;;;;;35.50;19.60;;;;;;;-1.75;73.41;102243.61;1747319;80;21073;-75
2020/12/22 01:56:59;;;;;;;39.20;19.10;;;;;;;-1.68;73.41;102240.83;1780345;79;21137;-75
2020/12/22 01:59:28;;;;;;;33.78;18.32;;;;;;;-1.60;73.33;102234.08;1786027;79;21263;-76
2020/12/22 02:01:56;;;;;;;22.07;12.40;;;;;;;-1.53;73.33;102228.14;1786951;80;21552;-75
2020/12/22 02:04:23;;;;;;;16.48;9.73;;;;;;;-1.50;73.22;102219.19;1787107;79;21152;-76
2020/12/22 02:06:51;;;;;;;19.20;10.23;;;;;;;-1.49;73.13;102220.84;1787554;78;21119;-76
2020/12/22 02:09:20;;;;;;;22.20;11.88;;;;;;;-1.47;73.01;102222.85;1788056;79;21450;-75
2020/12/22 02:11:48;;;;;;;30.43;14.00;;;;;;;-1.46;72.88;102217.95;1781718;78;21191;-76
2020/12/22 02:14:16;;;;;;;30.08;13.83;;;;;;;-1.43;72.75;102228.16;1787286;79;21575;-76
2020/12/22 02:16:44;;;;;;;40.05;15.88;;;;;;;-1.42;72.66;102222.77;1748508;81;21220;-76
2020/12/22 02:19:13;;;;;;;28.20;13.80;;;;;;;-1.39;72.55;102221.67;1746757;81;21164;-77
2020/12/22 02:21:41;;;;;;;26.75;13.28;;;;;;;-1.38;72.55;102219.87;1741286;80;21911;-77
2020/12/22 02:24:09;;;;;;;23.02;11.88;;;;;;;-1.35;72.51;102213.05;1744438;80;21193;-76
2020/12/22 02:26:36;;;;;;;27.58;13.03;;;;;;;-1.29;72.43;102213.81;1797835;78;21618;-75
2020/12/22 02:29:04;;;;;;;28.30;12.15;;;;;;;-1.26;72.38;102201.73;1798854;79;21120;-76
2020/12/22 02:31:32;;;;;;;23.65;11.15;;;;;;;-1.26;72.30;102205.19;1797635;78;21100;-77
2020/12/22 02:34:00;;;;;;;22.20;12.78;;;;;;;-1.31;72.06;102206.59;1775491;79;21051;-76
2020/12/22 02:36:27;;;;;;;26.65;12.85;;;;;;;-1.43;72.05;102208.02;1802332;79;21428;-75
2020/12/22 02:38:55;;;;;;;28.75;14.30;;;;;;;-1.46;72.20;102216.15;1755726;80;21103;-75
2020/12/22 02:41:22;;;;;;;26.70;13.68;;;;;;;-1.45;72.28;102223.52;1799693;79;21104;-76
2020/12/22 02:43:50;;;;;;;28.00;13.45;;;;;;;-1.44;72.33;102222.09;1813887;79;21041;-76
2020/12/22 02:46:18;;;;;;;23.27;12.18;;;;;;;-1.42;72.32;102223.25;1772909;80;21067;-76
2020/12/22 02:48:46;;;;;;;27.75;14.25;;;;;;;-1.43;72.37;102218.98;1802066;79;21183;-75
2020/12/22 02:51:13;;;;;;;24.12;14.65;;;;;;;-1.47;72.42;102224.16;1801366;79;21587;-76
2020/12/22 02:53:41;;;;;;;25.30;14.23;;;;;;;-1.51;72.47;102219.68;1783400;79;22139;-76
2020/12/22 02:56:09;;;;;;;27.60;15.60;;;;;;;-1.53;72.60;102222.91;1778773;79;21063;-76
2020/12/22 02:58:37;;;;;;;25.55;15.80;;;;;;;-1.48;72.73;102219.86;1798533;78;21076;-76
2020/12/22 03:01:06;;;;;;;28.90;16.87;;;;;;;-1.42;72.76;102222.77;1799246;79;22095;-76
2020/12/22 03:03:34;;;;;;;32.40;17.57;;;;;;;-1.37;72.75;102223.69;1783199;79;21157;-75
2020/12/22 03:06:02;;;;;;;36.17;18.45;;;;;;;-1.34;72.71;102223.41;1770601;80;21074;-76
2020/12/22 03:08:30;;;;;;;33.23;18.87;;;;;;;-1.31;72.70;102223.14;1801702;79;21602;-76
2020/12/22 03:11:00;;;;;;;37.33;18.77;;;;;;;-1.27;72.68;102221.06;1762805;79;21166;-75
2020/12/22 03:13:27;;;;;;;38.60;20.32;;;;;;;-1.24;72.65;102211.61;1760559;80;21264;-76
2020/12/22 03:15:55;;;;;;;38.60;20.15;;;;;;;-1.24;72.60;102208.99;1747063;80;21064;-76
2020/12/22 03:18:22;;;;;;;37.95;20.12;;;;;;;-1.27;72.54;102211.40;1782559;79;21195;-77
2020/12/22 03:20:50;;;;;;;37.42;19.85;;;;;;;-1.29;72.50;102213.33;1802088;79;21147;-77
2020/12/22 03:23:18;;;;;;;38.92;20.37;;;;;;;-1.29;72.51;102210.70;1801681;79;21080;-78
2020/12/22 03:25:46;;;;;;;39.53;20.90;;;;;;;-1.27;72.60;102208.78;1798545;78;21360;-76
2020/12/22 03:28:14;;;;;;;36.38;19.92;;;;;;;-1.21;72.62;102201.67;1789006;79;21156;-76
2020/12/22 03:30:44;;;;;;;39.13;20.88;;;;;;;-1.19;72.52;102199.72;1784935;79;21159;-76
2020/12/22 03:33:13;;;;;;;36.98;20.77;;;;;;;-1.17;72.51;102198.29;1800481;78;21115;-76
2020/12/22 03:35:40;;;;;;;40.08;20.72;;;;;;;-1.13;72.52;102204.91;1801018;78;21056;-76
2020/12/22 03:38:08;;;;;;;31.07;16.82;;;;;;;-1.09;72.50;102196.27;1749200;80;22405;-77
2020/12/22 03:40:36;;;;;;;35.75;18.17;;;;;;;-1.05;72.42;102197.67;1802329;79;21095;-76
2020/12/22 03:43:03;;;;;;;40.90;20.37;;;;;;;-1.10;72.33;102196.76;1793723;79;21566;-77
2020/12/22 03:45:32;;;;;;;41.55;19.23;;;;;;;-1.14;72.31;102199.81;1800037;79;21103;-75
2020/12/22 03:48:00;;;;;;;34.80;19.07;;;;;;;-1.16;72.30;102199.11;1801857;79;21551;-75
2020/12/22 03:50:28;;;;;;;35.65;19.20;;;;;;;-1.18;72.30;102197.95;1802185;79;21198;-76
2020/12/22 03:53:01;;;;;;;34.70;19.87;;;;;;;-1.17;72.39;102200.09;1791294;78;21120;-75
2020/12/22 03:55:28;;;;;;;35.83;19.85;;;;;;;-1.15;72.46;102191.12;1782721;78;21060;-76
2020/12/22 03:57:56;;;;;;;34.55;17.73;;;;;;;-1.11;72.42;102192.98;1783036;79;21151;-75
2020/12/22 04:00:24;;;;;;;37.35;19.42;;;;;;;-1.09;72.44;102187.09;1802282;79;21134;-76
2020/12/22 04:02:53;;;;;;;31.55;17.37;;;;;;;-1.08;72.44;102188.77;1799157;78;21147;-75
2020/12/22 04:05:23;;;;;;;35.98;18.10;;;;;;;-1.02;72.48;102187.72;1799393;79;21076;-76
2020/12/22 04:07:51;;;;;;;31.07;17.32;;;;;;;-1.06;72.37;102188.95;1801916;78;21163;-77
2020/12/22 04:10:18;;;;;;;31.70;17.45;;;;;;;-1.07;72.42;102178.61;1802094;78;21047;-76
2020/12/22 04:12:46;;;;;;;25.52;15.63;;;;;;;-1.05;72.45;102176.69;1800439;79;21143;-75
2020/12/22 04:15:13;;;;;;;23.32;14.55;;;;;;;-1.05;72.48;102176.69;1801282;79;21388;-76
2020/12/22 04:17:41;;;;;;;20.68;11.57;;;;;;;-1.04;72.44;102175.71;1792337;79;21064;-76
2020/12/22 04:20:09;;;;;;;18.00;11.25;;;;;;;-1.04;72.41;102175.71;1801352;79;21492;-76
2020/12/22 04:22:38;;;;;;;19.15;11.05;;;;;;;-1.08;72.38;102176.48;1801031;79;21614;-76
2020/12/22 04:25:06;;;;;;;18.23;10.78;;;;;;;-1.10;72.33;102171.84;1798087;79;21076;-76
2020/12/22 04:27:34;;;;;;;19.05;11.85;;;;;;;-1.16;72.34;102173.72;1802367;79;21803;-76
2020/12/22 04:30:05;;;;;;;17.57;11.15;;;;;;;-1.19;72.41;102181.37;1802081;79;21047;-75
2020/12/22 04:32:32;;;;;;;16.70;10.03;;;;;;;-1.17;72.52;102181.73;1802028;79;21077;-76
2020/12/22 04:35:00;;;;;;;13.90;8.98;;;;;;;-1.12;72.58;102176.39;1799044;79;21766;-76
2020/12/22 04:37:28;;;;;;;17.25;8.65;;;;;;;-1.09;72.52;102181.36;1742237;80;21138;-76
2020/12/22 04:39:55;;;;;;;12.03;8.65;;;;;;;-1.06;72.57;102180.26;1737944;80;21795;-77
2020/12/22 04:42:24;;;;;;;11.97;7.80;;;;;;;-1.03;72.57;102172.11;1714428;83;21197;-76
2020/12/22 04:44:52;;;;;;;12.55;7.25;;;;;;;-1.01;72.45;102176.26;1731127;80;21101;-76
2020/12/22 04:47:19;;;;;;;9.55;5.83;;;;;;;-1.05;72.32;102163.09;1763601;79;21103;-76
2020/12/22 04:49:51;;;;;;;11.33;7.33;;;;;;;-1.11;72.24;102161.52;1750522;80;21180;-75
2020/12/22 04:52:21;;;;;;;10.32;6.92;;;;;;;-1.18;72.38;102165.19;1743969;80;21364;-77
2020/12/22 04:54:49;;;;;;;13.25;7.87;;;;;;;-1.15;72.44;102164.05;1754553;80;21065;-76
2020/12/22 04:57:17;;;;;;;10.85;7.47;;;;;;;-1.18;72.43;102162.56;1755035;81;21152;-75
2020/12/22 04:59:46;;;;;;;13.78;7.60;;;;;;;-1.13;72.58;102159.50;1715756;81;21196;-76
2020/12/22 05:02:14;;;;;;;10.55;7.37;;;;;;;-1.06;72.58;102161.91;1779235;80;21182;-75
2020/12/22 05:04:42;;;;;;;11.50;7.33;;;;;;;-1.03;72.57;102162.45;1771864;79;21139;-75
2020/12/22 05:07:09;;;;;;;10.60;7.33;;;;;;;-1.01;72.57;102165.77;1801450;79;21072;-75
2020/12/22 05:09:37;;;;;;;10.70;7.33;;;;;;;-0.97;72.60;102170.24;1798440;79;21635;-76
2020/12/22 05:12:06;;;;;;;11.28;7.10;;;;;;;-0.92;72.58;102167.19;1770131;81;21594;-75
2020/12/22 05:14:33;;;;;;;11.63;7.15;;;;;;;-0.89;72.56;102166.41;1787664;79;21109;-76
2020/12/22 05:17:01;;;;;;;12.37;7.97;;;;;;;-0.89;72.50;102161.66;1801388;79;21360;-75
2020/12/22 05:19:34;;;;;;;12.45;7.72;;;;;;;-0.92;72.52;102166.72;1798902;78;21171;-76
2020/12/22 05:21:58;;;;;;;13.30;8.58;;;;;;;-0.92;72.57;102165.87;1755413;80;21154;-76
2020/12/22 05:24:26;;;;;;;13.30;8.23;;;;;;;-0.91;72.55;102163.13;1775699;79;21233;-76
2020/12/22 05:26:55;;;;;;;14.93;8.53;;;;;;;-0.90;72.49;102165.25;1741716;80;21166;-76
2020/12/22 05:29:22;;;;;;;11.20;7.42;;;;;;;-0.90;72.48;102160.83;1749989;80;22001;-75
2020/12/22 05:31:51;;;;;;;11.65;7.60;;;;;;;-0.88;72.53;102160.70;1752402;79;21049;-75
2020/12/22 05:34:19;;;;;;;10.90;7.08;;;;;;;-0.86;72.56;102152.19;1801520;79;21061;-76
2020/12/22 05:36:48;;;;;;;11.35;7.42;;;;;;;-0.83;72.53;102156.66;1743896;81;21125;-76
2020/12/22 05:39:20;;;;;;;12.10;7.75;;;;;;;-0.80;72.49;102166.88;1799889;79;21116;-76
2020/12/22 05:41:47;;;;;;;11.00;7.03;;;;;;;-0.82;72.44;102166.21;1792988;78;21376;-76
2020/12/22 05:44:15;;;;;;;10.93;7.17;;;;;;;-0.84;72.46;102164.20;1785045;79;21151;-76
2020/12/22 05:46:42;;;;;;;11.25;7.17;;;;;;;-0.85;72.46;102166.49;1796065;79;21107;-76
2020/12/22 05:49:12;;;;;;;11.95;7.87;;;;;;;-0.86;72.53;102164.81;1795382;79;21183;-75
2020/12/22 05:51:47;;;;;;;10.48;7.42;;;;;;;-0.84;72.59;102165.52;1777683;80;21107;-76
2020/12/22 05:54:17;;;;;;;11.43;6.97;;;;;;;-0.85;72.58;102163.88;1756099;80;21359;-75
2020/12/22 05:56:45;;;;;;;11.90;7.42;;;;;;;-0.88;72.58;102168.58;1751136;82;21117;-75
2020/12/22 05:59:20;;;;;;;9.80;6.90;;;;;;;-0.99;72.55;102170.86;1738318;81;21603;-76
2020/12/22 06:01:47;;;;;;;12.73;7.90;;;;;;;-1.02;72.73;102169.83;1741790;80;21183;-76
2020/12/22 06:04:17;;;;;;;9.70;5.60;;;;;;;-1.01;72.79;102168.87;1785177;78;21119;-76
2020/12/22 06:06:45;;;;;;;11.65;7.35;;;;;;;-1.00;72.87;102167.41;1786269;79;21355;-76
2020/12/22 06:09:15;;;;;;;12.43;7.42;;;;;;;-1.01;72.88;102167.08;1757223;78;37352;-76
2020/12/22 06:11:46;;;;;;;12.03;7.85;;;;;;;-1.01;72.97;102167.08;1785080;78;21147;-75
2020/12/22 06:14:20;;;;;;;10.75;6.80;;;;;;;-1.00;73.06;102170.03;1731639;80;21820;-75
2020/12/22 06:16:48;;;;;;;9.90;7.20;;;;;;;-0.99;73.20;102166.92;1800397;79;22863;-75
2020/12/22 06:19:16;;;;;;;14.53;7.53;;;;;;;-0.96;73.27;102160.08;1800395;78;21570;-75
2020/12/22 06:21:45;;;;;;;12.90;7.30;;;;;;;-0.95;73.27;102165.70;1794169;78;21116;-75
2020/12/22 06:24:14;;;;;;;11.90;7.58;;;;;;;-0.96;73.36;102166.15;1801674;79;21100;-75
2020/12/22 06:26:42;;;;;;;12.33;8.00;;;;;;;-0.97;73.42;102154.50;1795947;79;21147;-75
2020/12/22 06:29:26;;;;;;;13.68;8.28;;;;;;;-0.99;73.52;102157.28;1800213;79;21463;-75
2020/12/22 06:31:54;;;;;;;11.85;7.75;;;;;;;-0.98;73.63;102158.93;1768376;79;21267;-76
2020/12/22 06:34:26;;;;;;;11.73;7.80;;;;;;;-1.00;73.75;102155.61;1769055;79;21480;-75
2020/12/22 06:37:01;;;;;;;10.75;6.33;;;;;;;-0.99;73.83;102149.88;1772774;79;21184;-76
2020/12/22 06:39:45;;;;;;;12.05;7.33;;;;;;;-1.00;73.96;102149.05;1795862;78;21155;-76
2020/12/22 06:42:34;;;;;;;11.83;7.70;;;;;;;-1.01;74.10;102146.59;1747206;80;21199;-75
2020/12/22 06:45:26;;;;;;;15.13;8.23;;;;;;;-0.98;74.25;102141.87;1737568;80;21213;-75
2020/12/22 06:47:56;;;;;;;12.60;8.13;;;;;;;-0.94;74.36;102138.48;1757121;80;21170;-75
2020/12/22 06:50:40;;;;;;;13.05;8.25;;;;;;;-0.86;74.44;102139.08;1742197;80;21132;-75
2020/12/22 06:53:34;;;;;;;13.53;7.75;;;;;;;-0.83;74.52;102131.75;1785269;79;21072;-76
2020/12/22 06:56:03;;;;;;;12.80;7.83;;;;;;;-0.80;74.53;102127.52;1798297;79;21591;-76
2020/12/22 06:58:44;;;;;;;11.70;7.80;;;;;;;-0.75;74.60;102126.62;1770516;80;22109;-75
2020/12/22 07:01:34;;;;;;;12.15;8.30;;;;;;;-0.71;74.59;102129.30;1799442;79;21159;-75
2020/12/22 07:04:17;;;;;;;13.88;8.30;;;;;;;-0.69;74.61;102123.06;1790006;78;21147;-75
2020/12/22 07:06:58;;;;;;;11.78;7.75;;;;;;;-0.67;74.65;102118.52;1800857;79;21639;-75
2020/12/22 07:09:32;;;;;;;14.45;7.78;;;;;;;-0.66;74.67;102119.66;1768316;79;21620;-76
2020/12/22 07:12:15;;;;;;;15.53;8.23;;;;;;;-0.63;74.73;102122.00;1799519;79;21360;-75
2020/12/22 07:14:50;;;;;;;13.58;8.15;;;;;;;-0.59;74.77;102124.70;1796092;78;21167;-76
2020/12/22 07:17:19;;;;;;;13.05;7.60;;;;;;;-0.57;74.71;102118.80;1800371;79;21614;-77
2020/12/22 07:19:55;;;;;;;11.28;7.47;;;;;;;-0.57;74.72;102114.05;1779152;79;21155;-75
2020/12/22 07:22:24;;;;;;;14.07;7.67;;;;;;;-0.57;74.72;102114.05;1753830;81;21171;-75
2020/12/22 07:24:52;;;;;;;12.28;7.85;;;;;;;-0.60;74.75;102105.14;1797557;78;22112;-75
2020/12/22 07:27:21;;;;;;;14.15;8.55;;;;;;;-0.60;74.81;102106.46;1796777;78;21035;-76
2020/12/22 07:29:49;;;;;;;13.80;8.05;;;;;;;-0.56;74.85;102106.50;1789077;79;21155;-76
2020/12/22 07:32:16;;;;;;;13.70;8.25;;;;;;;-0.54;74.89;102100.14;1798692;78;21199;-75
2020/12/22 07:34:44;;;;;;;13.53;7.92;;;;;;;-0.51;74.86;102095.91;1765079;79;21576;-75
2020/12/22 07:37:12;;;;;;;12.70;7.55;;;;;;;-0.46;74.87;102098.12;1793231;79;21392;-75
2020/12/22 07:39:40;;;;;;;12.60;8.13;;;;;;;-0.43;74.84;102095.66;1790125;79;21617;-75
2020/12/22 07:42:16;;;;;;;11.63;7.97;;;;;;;-0.39;74.89;102095.73;1794641;80;21210;-75
2020/12/22 07:44:47;;;;;;;14.45;8.53;;;;;;;-0.32;74.89;102087.11;1788244;78;21187;-75
2020/12/22 07:47:15;;;;;;;14.58;8.70;;;;;;;-0.23;74.92;102093.29;1780604;78;21175;-76
2020/12/22 07:49:43;;;;;;;12.78;8.43;;;;;;;-0.15;74.81;102089.91;1786145;78;21365;-76
2020/12/22 07:52:16;;;;;;;13.90;9.18;;;;;;;-0.08;74.73;102089.16;1752357;80;21216;-75
2020/12/22 07:54:57;;;;;;;15.30;8.60;;;;;;;-0.04;74.64;102089.68;1800762;79;21136;-75
2020/12/22 07:57:26;;;;;;;14.93;9.08;;;;;;;0.01;74.56;102083.50;1800951;79;21654;-74
2020/12/22 08:00:06;;;;;;;16.50;9.65;;;;;;;0.04;74.40;102079.77;1785119;78;21198;-75
2020/12/22 08:02:36;;;;;;;15.43;9.68;;;;;;;0.04;74.35;102081.89;1801460;79;21457;-75
2020/12/22 08:05:12;;;;;;;14.53;9.88;;;;;;;0.07;74.30;102076.34;1791801;78;21138;-74
2020/12/22 08:07:54;;;;;;;17.70;10.43;;;;;;;0.12;74.21;102083.27;1792623;78;21144;-74
2020/12/22 08:10:24;;;;;;;16.20;10.10;;;;;;;0.18;74.10;102081.36;1784196;78;21052;-74
2020/12/22 08:12:53;;;;;;;16.93;10.20;;;;;;;0.22;73.94;102081.88;1740176;79;21198;-76
2020/12/22 08:15:21;;;;;;;17.70;10.58;;;;;;;0.25;73.87;102079.44;1780254;79;21193;-75
2020/12/22 08:17:52;;;;;;;14.95;9.35;;;;;;;0.33;73.79;102082.13;1794063;79;21144;-77
2020/12/22 08:20:20;;;;;;;16.30;9.95;;;;;;;0.33;73.67;102079.49;1750218;80;21472;-76
2020/12/22 08:22:47;;;;;;;17.55;10.18;;;;;;;0.34;73.55;102073.28;1765550;79;21132;-75
2020/12/22 08:25:15;;;;;;;15.53;10.45;;;;;;;0.32;73.54;102074.73;1753783;80;21158;-75
2020/12/22 08:27:42;;;;;;;17.42;10.45;;;;;;;0.33;73.48;102068.98;1739827;81;21501;-74
2020/12/22 08:30:19;;;;;;;16.95;9.63;;;;;;;0.23;73.35;102070.37;1736179;81;21097;-75
2020/12/22 08:32:47;;;;;;;21.68;12.63;;;;;;;0.10;73.41;102062.06;1721022;82;21560;-75
2020/12/22 08:35:21;;;;;;;19.70;11.75;;;;;;;-0.05;73.58;102053.89;1736330;80;21153;-75
2020/12/22 08:37:50;;;;;;;27.42;12.85;;;;;;;-0.10;73.75;102052.19;1793423;78;21568;-75
2020/12/22 08:40:30;;;;;;;16.93;10.23;;;;;;;-0.20;73.87;102055.38;1762838;80;21365;-76
2020/12/22 08:42:58;;;;;;;21.17;11.68;;;;;;;-0.27;74.02;102053.84;1744892;80;21206;-76
2020/12/22 08:45:30;;;;;;;20.90;11.75;;;;;;;-0.32;74.19;102052.98;1753007;80;21552;-75
2020/12/22 08:47:57;;;;;;;20.10;12.13;;;;;;;-0.33;74.33;102044.78;1760398;79;21248;-76
2020/12/22 08:50:25;;;;;;;21.25;13.20;;;;;;;-0.30;74.44;102043.14;1768650;79;21620;-76
2020/12/22 08:52:55;;;;;;;27.50;15.10;;;;;;;-0.20;74.53;102040.94;1756295;80;21380;-76
2020/12/22 08:55:22;;;;;;;24.45;14.55;;;;;;;-0.10;74.51;102037.75;1799155;79;21178;-75
2020/12/22 08:57:50;;;;;;;22.02;12.50;;;;;;;-0.07;74.48;102030.39;1795832;78;21156;-75
2020/12/22 09:00:24;;;;;;;23.15;13.05;;;;;;;-0.08;74.48;102030.55;1779339;78;21145;-75
2020/12/22 09:02:52;;;;;;;24.05;13.85;;;;;;;-0.03;74.48;102033.08;1799324;79;21635;-74
2020/12/22 09:05:23;;;;;;;22.62;13.10;;;;;;;0.05;74.39;102029.69;1794111;79;21474;-75
2020/12/22 09:07:59;;;;;;;27.25;14.58;;;;;;;0.09;74.24;102031.02;1788263;79;21156;-76
2020/12/22 09:10:27;;;;;;;27.52;14.80;;;;;;;0.14;74.14;102027.47;1743062;80;21197;-74
2020/12/22 09:12:55;;;;;;;25.05;14.25;;;;;;;0.19;73.96;102026.50;1750349;80;21189;-74
2020/12/22 09:15:23;;;;;;;21.70;13.48;;;;;;;0.21;73.85;102018.48;1781302;79;21212;-75
2020/12/22 09:17:50;;;;;;;24.87;13.70;;;;;;;0.26;73.78;102013.58;1812796;78;22208;-74
2020/12/22 09:20:18;;;;;;;28.42;15.40;;;;;;;0.26;73.58;102011.45;1774531;79;21134;-76
2020/12/22 09:22:46;;;;;;;27.20;15.08;;;;;;;0.25;73.50;102002.74;1761440;79;21595;-76
2020/12/22 09:25:16;;;;;;;24.82;14.65;;;;;;;0.26;73.42;102003.56;1802281;79;21158;-75
2020/12/22 09:27:46;;;;;;;26.33;14.35;;;;;;;0.30;73.34;101996.55;1782265;78;21133;-75
2020/12/22 09:30:15;;;;;;;27.20;14.60;;;;;;;0.30;73.17;101998.36;1789851;78;21213;-75
2020/12/22 09:32:47;;;;;;;29.15;15.55;;;;;;;0.26;72.98;101993.05;1773490;80;21157;-75
2020/12/22 09:35:15;;;;;;;33.90;18.57;;;;;;;0.18;72.98;101992.02;1777147;79;21252;-76
2020/12/22 09:37:45;;;;;;;34.75;17.62;;;;;;;0.14;72.94;101992.00;1796546;78;21167;-75
2020/12/22 09:40:12;;;;;;;29.55;16.48;;;;;;;0.16;72.99;101983.45;1759837;80;21206;-74
2020/12/22 09:42:41;;;;;;;32.65;17.90;;;;;;;0.22;72.94;101978.91;1742897;80;21359;-75
2020/12/22 09:45:09;;;;;;;29.23;16.75;;;;;;;0.26;72.90;101985.17;1774332;79;21307;-75
2020/12/22 09:47:37;;;;;;;28.80;16.52;;;;;;;0.29;72.90;101980.92;1792393;79;21213;-75
2020/12/22 09:50:05;;;;;;;31.55;16.67;;;;;;;0.33;72.83;101975.69;1792742;80;21168;-75
2020/12/22 09:52:33;;;;;;;32.05;18.15;;;;;;;0.31;72.66;101971.91;1787741;78;21164;-75
2020/12/22 09:55:01;;;;;;;28.30;15.90;;;;;;;0.29;72.73;101973.86;1773965;79;22440;-73
2020/12/22 09:57:29;;;;;;;34.00;17.65;;;;;;;0.34;72.77;101966.34;1791279;79;21163;-75
2020/12/22 09:59:58;;;;;;;34.92;18.52;;;;;;;0.30;72.59;101961.56;1778967;78;21642;-74
2020/12/22 10:02:26;;;;;;;35.15;18.67;;;;;;;0.21;72.58;101950.98;1784620;79;21184;-75
2020/12/22 10:04:54;;;;;;;32.67;17.87;;;;;;;0.26;72.65;101956.27;1810556;79;21111;-75
2020/12/22 10:07:21;;;;;;;29.87;17.35;;;;;;;0.33;72.63;101953.34;1781765;79;22635;-74
2020/12/22 10:09:49;;;;;;;37.28;19.60;;;;;;;0.39;72.55;101944.84;1781612;78;21129;-75
2020/12/22 10:12:17;;;;;;;39.55;20.10;;;;;;;0.42;72.37;101946.67;1759663;80;21252;-75
2020/12/22 10:14:45;;;;;;;36.30;18.52;;;;;;;0.43;72.38;101939.63;1787776;79;21182;-76
2020/12/22 10:17:13;;;;;;;35.58;18.62;;;;;;;0.46;72.31;101936.66;1780317;78;21166;-75
2020/12/22 10:19:41;;;;;;;38.53;18.87;;;;;;;0.44;72.28;101928.13;1797582;79;21285;-75
2020/12/22 10:22:10;;;;;;;32.15;17.05;;;;;;;0.46;72.25;101932.72;1800135;79;21203;-75
2020/12/22 10:24:39;;;;;;;35.43;18.25;;;;;;;0.46;72.09;101926.15;1795492;78;21495;-74
2020/12/22 10:27:07;;;;;;;40.55;20.90;;;;;;;0.39;72.13;101920.69;1797052;78;21195;-74
2020/12/22 10:29:35;;;;;;;33.18;17.70;;;;;;;0.39;72.24;101922.50;1788150;78;21180;-74
2020/12/22 10:32:02;;;;;;;41.18;21.45;;;;;;;0.43;72.18;101919.92;1796460;78;21559;-74
2020/12/22 10:34:30;;;;;;;39.60;19.62;;;;;;;0.39;72.29;101932.52;1753174;80;21087;-74
2020/12/22 10:36:58;;;;;;;38.02;19.32;;;;;;;0.46;72.31;101924.83;1784118;79;21124;-73
2020/12/22 10:39:26;;;;;;;41.48;20.97;;;;;;;0.54;72.30;101922.27;1771822;79;21091;-74
2020/12/22 10:41:54;;;;;;;43.63;22.32;;;;;;;0.60;72.20;101916.38;1801490;78;21116;-74
2020/12/22 10:44:24;;;;;;;44.38;21.70;;;;;;;0.66;72.17;101917.56;1787259;79;21452;-74
2020/12/22 10:46:52;;;;;;;46.83;23.52;;;;;;;0.70;71.99;101913.12;1796720;78;21064;-73
2020/12/22 10:49:20;;;;;;;45.92;23.95;;;;;;;0.76;71.90;101918.72;1806194;79;21049;-76
2020/12/22 10:51:48;;;;;;;52.10;25.62;;;;;;;0.81;71.79;101914.64;1798004;78;21179;-76
2020/12/22 10:54:16;;;;;;;48.45;23.90;;;;;;;0.85;71.68;101906.75;1801380;79;21202;-75
2020/12/22 10:56:44;;;;;;;49.27;24.55;;;;;;;0.88;71.54;101904.30;1796495;78;21287;-75
2020/12/22 10:59:12;;;;;;;46.25;23.60;;;;;;;0.86;71.42;101901.84;1798389;78;21191;-75
2020/12/22 11:01:41;;;;;;;42.65;21.57;;;;;;;0.86;71.32;101895.27;1808525;78;21052;-75
2020/12/22 11:04:10;;;;;;;48.78;23.45;;;;;;;0.86;71.28;101897.91;1810651;77;21036;-76
2020/12/22 11:11:58;;;;;;;48.60;23.57;;;;;;;0.87;70.97;101885.56;1769104;78;23461;-74
2020/12/22 11:14:26;;;;;;;45.25;22.52;;;;;;;0.80;70.97;101883.25;1757026;80;21174;-74
2020/12/22 11:16:54;;;;;;;42.73;22.42;;;;;;;0.81;70.97;101884.39;1753533;80;22494;-74
2020/12/22 11:19:21;;;;;;;42.62;21.45;;;;;;;0.80;70.96;101883.25;1740271;81;21586;-74
2020/12/22 11:21:49;;;;;;;41.35;20.40;;;;;;;0.78;70.84;101882.58;1750845;82;21633;-74
2020/12/22 11:24:19;;;;;;;36.03;18.80;;;;;;;0.75;70.87;101876.31;1758821;79;21594;-75
2020/12/22 11:26:47;;;;;;;39.90;19.48;;;;;;;0.76;70.90;101876.64;1777650;80;21154;-74
2020/12/22 11:29:14;;;;;;;35.10;18.90;;;;;;;0.74;70.88;101878.63;1760508;79;22429;-75